sensor_id;sensor_type;location;lat;lon;timestamp;P1;durP1;ratioP1;P2;durP2;ratioP2
18435;SDS011;9346;52.006;4.720;2022-09-21T00:00:31;2.47;;;2.00;;
18435;SDS011;9346;52.006;4.720;2022-09-21T00:02:59;4.07;;;1.90;;
18435;SDS011;9346;52.006;4.720;2022-09-21T00:05:26;2.60;;;1.70;;
18435;SDS011;9346;52.006;4.720;2022-09-21T00:07:54;5.50;;;2.37;;
18435;SDS011;9346;52.006;4.720;2022-09-21T00:10:22;4.03;;;1.97;;
18435;SDS011;9346;52.006;4.720;2022-09-21T00:12:49;3.67;;;2.10;;
18435;SDS011;9346;52.006;4.720;2022-09-21T00:15:16;5.83;;;2.40;;
18435;SDS011;9346;52.006;4.720;2022-09-21T00:17:46;4.13;;;1.83;;
18435;SDS011;9346;52.006;4.720;2022-09-21T00:20:13;3.87;;;2.00;;
18435;SDS011;9346;52.006;4.720;2022-09-21T00:22:41;6.63;;;2.03;;
18435;SDS011;9346;52.006;4.720;2022-09-21T00:25:08;5.53;;;2.20;;
18435;SDS011;9346;52.006;4.720;2022-09-21T00:27:35;3.90;;;2.00;;
18435;SDS011;9346;52.006;4.720;2022-09-21T00:30:03;2.10;;;1.67;;
18435;SDS011;9346;52.006;4.720;2022-09-21T00:32:32;4.53;;;2.53;;
18435;SDS011;9346;52.006;4.720;2022-09-21T00:35:03;3.37;;;2.00;;
18435;SDS011;9346;52.006;4.720;2022-09-21T00:37:31;4.63;;;2.10;;
18435;SDS011;9346;52.006;4.720;2022-09-21T00:40:00;4.30;;;1.83;;
18435;SDS011;9346;52.006;4.720;2022-09-21T00:42:28;3.67;;;1.93;;
18435;SDS011;9346;52.006;4.720;2022-09-21T00:44:57;3.43;;;2.20;;
18435;SDS011;9346;52.006;4.720;2022-09-21T00:47:25;2.43;;;1.80;;
18435;SDS011;9346;52.006;4.720;2022-09-21T00:49:56;5.07;;;1.80;;
18435;SDS011;9346;52.006;4.720;2022-09-21T00:52:28;2.77;;;2.17;;
18435;SDS011;9346;52.006;4.720;2022-09-21T00:54:59;4.20;;;1.93;;
18435;SDS011;9346;52.006;4.720;2022-09-21T00:57:31;2.87;;;2.10;;
18435;SDS011;9346;52.006;4.720;2022-09-21T01:00:02;3.90;;;1.80;;
18435;SDS011;9346;52.006;4.720;2022-09-21T01:02:33;6.40;;;2.33;;
18435;SDS011;9346;52.006;4.720;2022-09-21T01:05:01;2.30;;;1.70;;
18435;SDS011;9346;52.006;4.720;2022-09-21T01:07:31;4.00;;;1.83;;
18435;SDS011;9346;52.006;4.720;2022-09-21T01:10:03;1.83;;;1.50;;
18435;SDS011;9346;52.006;4.720;2022-09-21T01:12:38;4.60;;;1.77;;
18435;SDS011;9346;52.006;4.720;2022-09-21T01:15:18;3.03;;;1.83;;
18435;SDS011;9346;52.006;4.720;2022-09-21T01:17:57;3.17;;;1.60;;
18435;SDS011;9346;52.006;4.720;2022-09-21T01:29:59;5.10;;;2.17;;
18435;SDS011;9346;52.006;4.720;2022-09-21T01:32:28;2.77;;;1.67;;
18435;SDS011;9346;52.006;4.720;2022-09-21T01:35:02;1.97;;;1.50;;
18435;SDS011;9346;52.006;4.720;2022-09-21T01:37:35;2.33;;;1.87;;
18435;SDS011;9346;52.006;4.720;2022-09-21T01:40:07;4.33;;;2.03;;
18435;SDS011;9346;52.006;4.720;2022-09-21T01:42:38;2.63;;;2.07;;
18435;SDS011;9346;52.006;4.720;2022-09-21T01:45:10;3.40;;;1.63;;
18435;SDS011;9346;52.006;4.720;2022-09-21T01:47:41;2.87;;;1.90;;
18435;SDS011;9346;52.006;4.720;2022-09-21T01:50:12;2.43;;;1.67;;
18435;SDS011;9346;52.006;4.720;2022-09-21T01:52:41;3.60;;;2.10;;
18435;SDS011;9346;52.006;4.720;2022-09-21T01:55:15;2.73;;;1.57;;
18435;SDS011;9346;52.006;4.720;2022-09-21T01:57:53;2.00;;;1.77;;
18435;SDS011;9346;52.006;4.720;2022-09-21T02:00:28;2.43;;;1.53;;
18435;SDS011;9346;52.006;4.720;2022-09-21T02:02:58;3.27;;;1.80;;
18435;SDS011;9346;52.006;4.720;2022-09-21T02:05:29;3.47;;;2.20;;
18435;SDS011;9346;52.006;4.720;2022-09-21T02:07:57;4.03;;;1.80;;
18435;SDS011;9346;52.006;4.720;2022-09-21T02:10:27;2.47;;;1.70;;
18435;SDS011;9346;52.006;4.720;2022-09-21T02:13:00;2.27;;;1.80;;
18435;SDS011;9346;52.006;4.720;2022-09-21T02:15:35;4.60;;;2.10;;
18435;SDS011;9346;52.006;4.720;2022-09-21T02:18:15;2.70;;;2.00;;
18435;SDS011;9346;52.006;4.720;2022-09-21T02:20:55;2.80;;;1.93;;
18435;SDS011;9346;52.006;4.720;2022-09-21T02:23:25;2.43;;;1.93;;
18435;SDS011;9346;52.006;4.720;2022-09-21T02:26:02;2.53;;;1.73;;
18435;SDS011;9346;52.006;4.720;2022-09-21T02:28:34;2.03;;;1.80;;
18435;SDS011;9346;52.006;4.720;2022-09-21T02:31:11;5.10;;;2.10;;
18435;SDS011;9346;52.006;4.720;2022-09-21T02:33:44;3.10;;;2.00;;
18435;SDS011;9346;52.006;4.720;2022-09-21T02:36:21;5.43;;;1.80;;
18435;SDS011;9346;52.006;4.720;2022-09-21T02:38:55;3.70;;;2.23;;
18435;SDS011;9346;52.006;4.720;2022-09-21T02:41:30;3.43;;;1.97;;
18435;SDS011;9346;52.006;4.720;2022-09-21T02:44:05;5.73;;;2.07;;
18435;SDS011;9346;52.006;4.720;2022-09-21T02:46:39;4.70;;;2.07;;
18435;SDS011;9346;52.006;4.720;2022-09-21T02:49:12;3.87;;;2.10;;
18435;SDS011;9346;52.006;4.720;2022-09-21T02:51:46;5.97;;;2.27;;
18435;SDS011;9346;52.006;4.720;2022-09-21T02:54:16;4.47;;;2.20;;
18435;SDS011;9346;52.006;4.720;2022-09-21T02:56:47;3.60;;;2.30;;
18435;SDS011;9346;52.006;4.720;2022-09-21T02:59:15;4.97;;;2.20;;
18435;SDS011;9346;52.006;4.720;2022-09-21T03:01:45;3.60;;;2.37;;
18435;SDS011;9346;52.006;4.720;2022-09-21T03:04:13;5.73;;;2.20;;
18435;SDS011;9346;52.006;4.720;2022-09-21T03:06:40;2.80;;;2.07;;
18435;SDS011;9346;52.006;4.720;2022-09-21T03:09:07;3.73;;;2.20;;
18435;SDS011;9346;52.006;4.720;2022-09-21T03:11:34;3.13;;;2.20;;
18435;SDS011;9346;52.006;4.720;2022-09-21T03:14:03;2.27;;;1.60;;
18435;SDS011;9346;52.006;4.720;2022-09-21T03:16:33;3.37;;;2.37;;
18435;SDS011;9346;52.006;4.720;2022-09-21T03:19:01;2.10;;;1.80;;
18435;SDS011;9346;52.006;4.720;2022-09-21T03:21:29;4.27;;;2.03;;
18435;SDS011;9346;52.006;4.720;2022-09-21T03:23:56;3.47;;;2.13;;
18435;SDS011;9346;52.006;4.720;2022-09-21T03:26:23;2.77;;;2.03;;
18435;SDS011;9346;52.006;4.720;2022-09-21T03:28:50;6.07;;;1.90;;
18435;SDS011;9346;52.006;4.720;2022-09-21T03:31:18;2.47;;;1.83;;
18435;SDS011;9346;52.006;4.720;2022-09-21T03:33:46;3.77;;;1.90;;
18435;SDS011;9346;52.006;4.720;2022-09-21T03:36:15;3.20;;;1.90;;
18435;SDS011;9346;52.006;4.720;2022-09-21T03:38:42;2.83;;;1.90;;
18435;SDS011;9346;52.006;4.720;2022-09-21T03:41:10;3.37;;;2.07;;
18435;SDS011;9346;52.006;4.720;2022-09-21T03:43:38;6.23;;;2.30;;
18435;SDS011;9346;52.006;4.720;2022-09-21T03:46:05;3.10;;;2.20;;
18435;SDS011;9346;52.006;4.720;2022-09-21T03:48:32;2.70;;;2.20;;
18435;SDS011;9346;52.006;4.720;2022-09-21T03:51:00;4.70;;;2.40;;
18435;SDS011;9346;52.006;4.720;2022-09-21T03:53:28;4.93;;;2.27;;
18435;SDS011;9346;52.006;4.720;2022-09-21T03:55:56;4.50;;;2.37;;
18435;SDS011;9346;52.006;4.720;2022-09-21T03:58:23;5.87;;;2.73;;
18435;SDS011;9346;52.006;4.720;2022-09-21T04:00:50;2.80;;;2.17;;
18435;SDS011;9346;52.006;4.720;2022-09-21T04:03:18;4.77;;;2.20;;
18435;SDS011;9346;52.006;4.720;2022-09-21T04:05:45;5.93;;;1.97;;
18435;SDS011;9346;52.006;4.720;2022-09-21T04:08:12;3.23;;;2.37;;
18435;SDS011;9346;52.006;4.720;2022-09-21T04:10:41;6.43;;;2.63;;
18435;SDS011;9346;52.006;4.720;2022-09-21T04:13:08;2.63;;;1.97;;
18435;SDS011;9346;52.006;4.720;2022-09-21T04:15:36;2.70;;;1.77;;
18435;SDS011;9346;52.006;4.720;2022-09-21T04:18:03;3.37;;;2.53;;
18435;SDS011;9346;52.006;4.720;2022-09-21T04:20:31;5.07;;;2.20;;
18435;SDS011;9346;52.006;4.720;2022-09-21T04:22:58;3.07;;;1.80;;
18435;SDS011;9346;52.006;4.720;2022-09-21T04:25:25;3.47;;;2.07;;
18435;SDS011;9346;52.006;4.720;2022-09-21T04:27:54;2.73;;;1.87;;
18435;SDS011;9346;52.006;4.720;2022-09-21T04:30:21;4.50;;;2.07;;
18435;SDS011;9346;52.006;4.720;2022-09-21T04:32:48;4.80;;;2.00;;
18435;SDS011;9346;52.006;4.720;2022-09-21T04:35:15;3.07;;;2.00;;
18435;SDS011;9346;52.006;4.720;2022-09-21T04:37:42;5.33;;;2.47;;
18435;SDS011;9346;52.006;4.720;2022-09-21T04:40:09;3.70;;;2.13;;
18435;SDS011;9346;52.006;4.720;2022-09-21T04:42:37;5.53;;;2.33;;
18435;SDS011;9346;52.006;4.720;2022-09-21T04:45:07;5.37;;;2.50;;
18435;SDS011;9346;52.006;4.720;2022-09-21T04:47:35;4.67;;;2.43;;
18435;SDS011;9346;52.006;4.720;2022-09-21T04:50:02;5.50;;;2.93;;
18435;SDS011;9346;52.006;4.720;2022-09-21T04:52:29;3.30;;;2.20;;
18435;SDS011;9346;52.006;4.720;2022-09-21T04:54:56;3.73;;;2.03;;
18435;SDS011;9346;52.006;4.720;2022-09-21T04:57:23;4.27;;;2.60;;
18435;SDS011;9346;52.006;4.720;2022-09-21T04:59:50;2.57;;;2.20;;
18435;SDS011;9346;52.006;4.720;2022-09-21T05:02:19;4.77;;;2.70;;
18435;SDS011;9346;52.006;4.720;2022-09-21T05:04:46;3.37;;;2.30;;
18435;SDS011;9346;52.006;4.720;2022-09-21T05:07:13;3.23;;;2.40;;
18435;SDS011;9346;52.006;4.720;2022-09-21T05:09:41;4.13;;;2.87;;
18435;SDS011;9346;52.006;4.720;2022-09-21T05:12:25;5.27;;;2.37;;
18435;SDS011;9346;52.006;4.720;2022-09-21T05:14:52;6.40;;;2.67;;
18435;SDS011;9346;52.006;4.720;2022-09-21T05:17:22;3.30;;;2.27;;
18435;SDS011;9346;52.006;4.720;2022-09-21T05:19:49;2.67;;;2.00;;
18435;SDS011;9346;52.006;4.720;2022-09-21T05:22:17;5.47;;;2.57;;
18435;SDS011;9346;52.006;4.720;2022-09-21T05:24:45;5.90;;;2.53;;
18435;SDS011;9346;52.006;4.720;2022-09-21T05:27:12;5.27;;;3.07;;
18435;SDS011;9346;52.006;4.720;2022-09-21T05:29:39;4.43;;;3.07;;
18435;SDS011;9346;52.006;4.720;2022-09-21T05:32:10;8.27;;;3.30;;
18435;SDS011;9346;52.006;4.720;2022-09-21T05:34:47;5.80;;;2.70;;
18435;SDS011;9346;52.006;4.720;2022-09-21T05:37:37;3.73;;;2.47;;
18435;SDS011;9346;52.006;4.720;2022-09-21T05:40:13;7.97;;;3.17;;
18435;SDS011;9346;52.006;4.720;2022-09-21T05:42:40;3.53;;;2.50;;
18435;SDS011;9346;52.006;4.720;2022-09-21T05:45:11;2.53;;;2.07;;
18435;SDS011;9346;52.006;4.720;2022-09-21T05:47:43;9.03;;;2.97;;
18435;SDS011;9346;52.006;4.720;2022-09-21T05:53:18;3.03;;;2.10;;
18435;SDS011;9346;52.006;4.720;2022-09-21T05:55:56;3.97;;;3.00;;
18435;SDS011;9346;52.006;4.720;2022-09-21T05:58:27;4.13;;;3.00;;
18435;SDS011;9346;52.006;4.720;2022-09-21T06:03:54;5.53;;;3.10;;
18435;SDS011;9346;52.006;4.720;2022-09-21T06:06:24;7.27;;;3.77;;
18435;SDS011;9346;52.006;4.720;2022-09-21T06:08:51;6.23;;;3.10;;
18435;SDS011;9346;52.006;4.720;2022-09-21T06:11:19;5.60;;;3.10;;
18435;SDS011;9346;52.006;4.720;2022-09-21T06:13:46;7.30;;;3.57;;
18435;SDS011;9346;52.006;4.720;2022-09-21T06:16:16;5.37;;;3.20;;
18435;SDS011;9346;52.006;4.720;2022-09-21T06:18:57;8.43;;;3.90;;
18435;SDS011;9346;52.006;4.720;2022-09-21T06:24:38;5.20;;;3.30;;
18435;SDS011;9346;52.006;4.720;2022-09-21T06:27:28;7.87;;;3.63;;
18435;SDS011;9346;52.006;4.720;2022-09-21T06:30:07;6.20;;;3.80;;
18435;SDS011;9346;52.006;4.720;2022-09-21T06:32:42;10.30;;;3.20;;
18435;SDS011;9346;52.006;4.720;2022-09-21T06:35:55;6.87;;;3.33;;
18435;SDS011;9346;52.006;4.720;2022-09-21T06:38:20;10.67;;;4.03;;
18435;SDS011;9346;52.006;4.720;2022-09-21T06:40:52;5.80;;;3.37;;
18435;SDS011;9346;52.006;4.720;2022-09-21T06:43:30;4.90;;;3.13;;
18435;SDS011;9346;52.006;4.720;2022-09-21T06:47:42;4.67;;;3.37;;
18435;SDS011;9346;52.006;4.720;2022-09-21T06:49:20;6.43;;;4.60;;
18435;SDS011;9346;52.006;4.720;2022-09-21T06:51:54;10.10;;;4.03;;
18435;SDS011;9346;52.006;4.720;2022-09-21T06:54:32;7.43;;;4.60;;
18435;SDS011;9346;52.006;4.720;2022-09-21T06:57:34;8.53;;;4.37;;
18435;SDS011;9346;52.006;4.720;2022-09-21T07:00:07;6.97;;;4.27;;
18435;SDS011;9346;52.006;4.720;2022-09-21T07:02:39;9.37;;;5.43;;
18435;SDS011;9346;52.006;4.720;2022-09-21T07:05:14;7.37;;;5.70;;
18435;SDS011;9346;52.006;4.720;2022-09-21T07:07:44;11.60;;;6.60;;
18435;SDS011;9346;52.006;4.720;2022-09-21T07:10:15;9.07;;;6.80;;
18435;SDS011;9346;52.006;4.720;2022-09-21T07:12:55;10.23;;;7.07;;
18435;SDS011;9346;52.006;4.720;2022-09-21T07:15:42;10.33;;;6.23;;
18435;SDS011;9346;52.006;4.720;2022-09-21T07:18:21;12.70;;;6.33;;
18435;SDS011;9346;52.006;4.720;2022-09-21T07:23:37;9.40;;;5.73;;
18435;SDS011;9346;52.006;4.720;2022-09-21T07:26:21;6.93;;;4.83;;
18435;SDS011;9346;52.006;4.720;2022-09-21T07:29:25;11.00;;;6.13;;
18435;SDS011;9346;52.006;4.720;2022-09-21T07:32:12;8.73;;;5.40;;
18435;SDS011;9346;52.006;4.720;2022-09-21T07:42:13;9.63;;;5.03;;
18435;SDS011;9346;52.006;4.720;2022-09-21T07:45:01;7.93;;;5.00;;
18435;SDS011;9346;52.006;4.720;2022-09-21T07:47:33;10.20;;;4.03;;
18435;SDS011;9346;52.006;4.720;2022-09-21T07:56:40;6.37;;;3.90;;
18435;SDS011;9346;52.006;4.720;2022-09-21T08:03:04;4.43;;;3.47;;
18435;SDS011;9346;52.006;4.720;2022-09-21T08:05:32;6.53;;;3.27;;
18435;SDS011;9346;52.006;4.720;2022-09-21T08:08:04;14.43;;;3.40;;
18435;SDS011;9346;52.006;4.720;2022-09-21T08:10:34;5.47;;;2.47;;
18435;SDS011;9346;52.006;4.720;2022-09-21T08:13:04;3.80;;;2.30;;
18435;SDS011;9346;52.006;4.720;2022-09-21T08:15:32;7.13;;;2.50;;
18435;SDS011;9346;52.006;4.720;2022-09-21T08:18:00;5.17;;;2.70;;
18435;SDS011;9346;52.006;4.720;2022-09-21T08:20:31;7.47;;;3.50;;
18435;SDS011;9346;52.006;4.720;2022-09-21T08:22:59;3.50;;;2.40;;
18435;SDS011;9346;52.006;4.720;2022-09-21T08:25:26;4.53;;;2.53;;
18435;SDS011;9346;52.006;4.720;2022-09-21T08:27:57;2.97;;;2.37;;
18435;SDS011;9346;52.006;4.720;2022-09-21T08:30:25;4.43;;;2.30;;
18435;SDS011;9346;52.006;4.720;2022-09-21T08:32:55;3.77;;;2.20;;
18435;SDS011;9346;52.006;4.720;2022-09-21T08:35:22;5.00;;;2.47;;
18435;SDS011;9346;52.006;4.720;2022-09-21T08:37:52;3.67;;;1.90;;
18435;SDS011;9346;52.006;4.720;2022-09-21T08:40:19;2.47;;;1.23;;
18435;SDS011;9346;52.006;4.720;2022-09-21T08:42:50;1.40;;;1.20;;
18435;SDS011;9346;52.006;4.720;2022-09-21T08:45:27;4.13;;;1.83;;
18435;SDS011;9346;52.006;4.720;2022-09-21T08:48:00;2.77;;;1.20;;
18435;SDS011;9346;52.006;4.720;2022-09-21T08:50:33;1.80;;;0.73;;
18435;SDS011;9346;52.006;4.720;2022-09-21T08:53:04;1.33;;;1.03;;
18435;SDS011;9346;52.006;4.720;2022-09-21T08:55:33;2.90;;;1.00;;
18435;SDS011;9346;52.006;4.720;2022-09-21T08:58:00;2.43;;;1.20;;
18435;SDS011;9346;52.006;4.720;2022-09-21T09:00:32;2.67;;;1.30;;
18435;SDS011;9346;52.006;4.720;2022-09-21T09:05:53;3.47;;;1.20;;
18435;SDS011;9346;52.006;4.720;2022-09-21T09:14:27;3.30;;;1.13;;
18435;SDS011;9346;52.006;4.720;2022-09-21T09:17:30;3.20;;;1.60;;
18435;SDS011;9346;52.006;4.720;2022-09-21T09:20:08;3.33;;;1.60;;
18435;SDS011;9346;52.006;4.720;2022-09-21T09:22:42;3.43;;;1.30;;
18435;SDS011;9346;52.006;4.720;2022-09-21T09:25:15;3.57;;;1.50;;
18435;SDS011;9346;52.006;4.720;2022-09-21T09:27:45;1.97;;;0.90;;
18435;SDS011;9346;52.006;4.720;2022-09-21T09:30:16;2.53;;;0.97;;
18435;SDS011;9346;52.006;4.720;2022-09-21T09:32:50;4.63;;;1.37;;
18435;SDS011;9346;52.006;4.720;2022-09-21T09:35:24;4.23;;;1.47;;
18435;SDS011;9346;52.006;4.720;2022-09-21T09:37:55;1.43;;;0.90;;
18435;SDS011;9346;52.006;4.720;2022-09-21T09:40:36;2.03;;;1.37;;
18435;SDS011;9346;52.006;4.720;2022-09-21T09:43:16;2.60;;;0.83;;
18435;SDS011;9346;52.006;4.720;2022-09-21T09:45:54;0.73;;;0.70;;
18435;SDS011;9346;52.006;4.720;2022-09-21T09:51:27;1.80;;;1.07;;
18435;SDS011;9346;52.006;4.720;2022-09-21T09:53:59;0.77;;;0.50;;
18435;SDS011;9346;52.006;4.720;2022-09-21T09:56:28;1.53;;;0.60;;
18435;SDS011;9346;52.006;4.720;2022-09-21T09:58:57;4.00;;;0.70;;
18435;SDS011;9346;52.006;4.720;2022-09-21T10:01:36;2.50;;;0.67;;
18435;SDS011;9346;52.006;4.720;2022-09-21T10:04:07;5.27;;;1.00;;
18435;SDS011;9346;52.006;4.720;2022-09-21T10:06:36;3.27;;;0.60;;
18435;SDS011;9346;52.006;4.720;2022-09-21T10:09:17;1.97;;;0.93;;
18435;SDS011;9346;52.006;4.720;2022-09-21T10:11:48;1.80;;;0.60;;
18435;SDS011;9346;52.006;4.720;2022-09-21T10:14:17;2.07;;;0.87;;
18435;SDS011;9346;52.006;4.720;2022-09-21T10:16:47;1.23;;;0.70;;
18435;SDS011;9346;52.006;4.720;2022-09-21T10:19:19;4.17;;;1.20;;
18435;SDS011;9346;52.006;4.720;2022-09-21T10:21:49;3.10;;;0.93;;
18435;SDS011;9346;52.006;4.720;2022-09-21T10:24:22;1.80;;;1.00;;
18435;SDS011;9346;52.006;4.720;2022-09-21T10:26:52;2.77;;;1.03;;
18435;SDS011;9346;52.006;4.720;2022-09-21T10:29:29;2.60;;;0.80;;
18435;SDS011;9346;52.006;4.720;2022-09-21T10:31:59;1.80;;;0.73;;
18435;SDS011;9346;52.006;4.720;2022-09-21T10:34:29;1.37;;;0.70;;
18435;SDS011;9346;52.006;4.720;2022-09-21T10:36:58;1.87;;;1.10;;
18435;SDS011;9346;52.006;4.720;2022-09-21T10:39:27;1.37;;;0.70;;
18435;SDS011;9346;52.006;4.720;2022-09-21T10:41:57;1.47;;;0.73;;
18435;SDS011;9346;52.006;4.720;2022-09-21T10:44:28;1.43;;;0.80;;
18435;SDS011;9346;52.006;4.720;2022-09-21T10:47:03;2.40;;;0.57;;
18435;SDS011;9346;52.006;4.720;2022-09-21T10:49:44;0.57;;;0.43;;
18435;SDS011;9346;52.006;4.720;2022-09-21T10:52:14;2.73;;;0.77;;
18435;SDS011;9346;52.006;4.720;2022-09-21T10:54:43;1.17;;;0.70;;
18435;SDS011;9346;52.006;4.720;2022-09-21T10:57:16;1.03;;;0.77;;
18435;SDS011;9346;52.006;4.720;2022-09-21T10:59:46;2.33;;;0.90;;
18435;SDS011;9346;52.006;4.720;2022-09-21T11:02:27;0.67;;;0.43;;
18435;SDS011;9346;52.006;4.720;2022-09-21T11:05:08;1.27;;;0.50;;
18435;SDS011;9346;52.006;4.720;2022-09-21T11:07:42;3.57;;;0.40;;
18435;SDS011;9346;52.006;4.720;2022-09-21T11:10:15;2.00;;;0.70;;
18435;SDS011;9346;52.006;4.720;2022-09-21T11:12:59;1.63;;;0.47;;
18435;SDS011;9346;52.006;4.720;2022-09-21T11:15:42;2.73;;;0.73;;
18435;SDS011;9346;52.006;4.720;2022-09-21T11:18:14;2.37;;;0.60;;
18435;SDS011;9346;52.006;4.720;2022-09-21T11:20:50;0.77;;;0.50;;
18435;SDS011;9346;52.006;4.720;2022-09-21T11:23:32;1.20;;;0.70;;
18435;SDS011;9346;52.006;4.720;2022-09-21T11:26:11;1.30;;;0.60;;
18435;SDS011;9346;52.006;4.720;2022-09-21T11:28:46;0.90;;;0.50;;
18435;SDS011;9346;52.006;4.720;2022-09-21T11:31:32;2.07;;;1.03;;
18435;SDS011;9346;52.006;4.720;2022-09-21T11:37:05;1.63;;;0.50;;
18435;SDS011;9346;52.006;4.720;2022-09-21T11:39:46;0.70;;;0.50;;
18435;SDS011;9346;52.006;4.720;2022-09-21T11:42:38;0.20;;;0.20;;
18435;SDS011;9346;52.006;4.720;2022-09-21T11:45:19;0.67;;;0.40;;
18435;SDS011;9346;52.006;4.720;2022-09-21T11:48:00;0.97;;;0.40;;
18435;SDS011;9346;52.006;4.720;2022-09-21T11:50:46;2.27;;;0.67;;
18435;SDS011;9346;52.006;4.720;2022-09-21T11:56:16;1.00;;;0.50;;
18435;SDS011;9346;52.006;4.720;2022-09-21T11:58:57;1.77;;;0.67;;
18435;SDS011;9346;52.006;4.720;2022-09-21T12:07:15;0.80;;;0.30;;
18435;SDS011;9346;52.006;4.720;2022-09-21T12:13:12;0.63;;;0.50;;
18435;SDS011;9346;52.006;4.720;2022-09-21T12:15:48;1.13;;;0.53;;
18435;SDS011;9346;52.006;4.720;2022-09-21T12:18:25;1.90;;;0.37;;
18435;SDS011;9346;52.006;4.720;2022-09-21T12:20:59;0.30;;;0.30;;
18435;SDS011;9346;52.006;4.720;2022-09-21T12:23:37;2.70;;;0.50;;
18435;SDS011;9346;52.006;4.720;2022-09-21T12:26:13;1.57;;;0.40;;
18435;SDS011;9346;52.006;4.720;2022-09-21T12:29:20;0.43;;;0.40;;
18435;SDS011;9346;52.006;4.720;2022-09-21T12:31:40;1.50;;;0.40;;
18435;SDS011;9346;52.006;4.720;2022-09-21T12:34:16;0.30;;;0.30;;
18435;SDS011;9346;52.006;4.720;2022-09-21T12:36:57;1.23;;;0.40;;
18435;SDS011;9346;52.006;4.720;2022-09-21T12:39:34;3.10;;;0.80;;
18435;SDS011;9346;52.006;4.720;2022-09-21T12:42:09;0.57;;;0.20;;
18435;SDS011;9346;52.006;4.720;2022-09-21T12:45:00;1.83;;;0.53;;
18435;SDS011;9346;52.006;4.720;2022-09-21T12:48:05;0.67;;;0.30;;
18435;SDS011;9346;52.006;4.720;2022-09-21T12:50:41;1.00;;;0.57;;
18435;SDS011;9346;52.006;4.720;2022-09-21T12:53:13;0.67;;;0.60;;
18435;SDS011;9346;52.006;4.720;2022-09-21T12:55:45;7.27;;;0.70;;
18435;SDS011;9346;52.006;4.720;2022-09-21T12:58:26;1.13;;;0.63;;
18435;SDS011;9346;52.006;4.720;2022-09-21T13:01:11;1.13;;;0.50;;
18435;SDS011;9346;52.006;4.720;2022-09-21T13:03:48;1.43;;;0.30;;
18435;SDS011;9346;52.006;4.720;2022-09-21T13:06:37;0.50;;;0.33;;
18435;SDS011;9346;52.006;4.720;2022-09-21T13:09:33;2.27;;;0.53;;
18435;SDS011;9346;52.006;4.720;2022-09-21T13:12:05;0.77;;;0.60;;
18435;SDS011;9346;52.006;4.720;2022-09-21T13:14:41;1.33;;;0.90;;
18435;SDS011;9346;52.006;4.720;2022-09-21T13:17:17;6.63;;;0.80;;
18435;SDS011;9346;52.006;4.720;2022-09-21T13:19:54;1.40;;;0.70;;
18435;SDS011;9346;52.006;4.720;2022-09-21T13:22:29;0.93;;;0.43;;
18435;SDS011;9346;52.006;4.720;2022-09-21T13:25:01;1.70;;;0.60;;
18435;SDS011;9346;52.006;4.720;2022-09-21T13:30:33;0.87;;;0.50;;
18435;SDS011;9346;52.006;4.720;2022-09-21T13:33:28;0.40;;;0.30;;
18435;SDS011;9346;52.006;4.720;2022-09-21T13:41:45;1.20;;;0.47;;
18435;SDS011;9346;52.006;4.720;2022-09-21T13:47:08;2.03;;;0.80;;
18435;SDS011;9346;52.006;4.720;2022-09-21T13:49:43;1.50;;;0.70;;
18435;SDS011;9346;52.006;4.720;2022-09-21T13:52:20;0.40;;;0.30;;
18435;SDS011;9346;52.006;4.720;2022-09-21T13:54:52;0.40;;;0.40;;
18435;SDS011;9346;52.006;4.720;2022-09-21T13:57:23;1.10;;;0.57;;
18435;SDS011;9346;52.006;4.720;2022-09-21T14:00:01;1.10;;;0.50;;
18435;SDS011;9346;52.006;4.720;2022-09-21T14:02:35;0.60;;;0.30;;
18435;SDS011;9346;52.006;4.720;2022-09-21T14:05:06;1.13;;;0.40;;
18435;SDS011;9346;52.006;4.720;2022-09-21T14:07:44;3.60;;;0.60;;
18435;SDS011;9346;52.006;4.720;2022-09-21T14:10:20;1.00;;;0.40;;
18435;SDS011;9346;52.006;4.720;2022-09-21T14:12:49;0.73;;;0.47;;
18435;SDS011;9346;52.006;4.720;2022-09-21T14:15:31;1.40;;;0.60;;
18435;SDS011;9346;52.006;4.720;2022-09-21T14:18:08;1.30;;;0.47;;
18435;SDS011;9346;52.006;4.720;2022-09-21T14:23:41;2.20;;;0.57;;
18435;SDS011;9346;52.006;4.720;2022-09-21T14:26:46;0.30;;;0.30;;
18435;SDS011;9346;52.006;4.720;2022-09-21T14:29:20;0.53;;;0.53;;
18435;SDS011;9346;52.006;4.720;2022-09-21T14:31:51;0.87;;;0.50;;
18435;SDS011;9346;52.006;4.720;2022-09-21T14:34:22;0.20;;;0.20;;
18435;SDS011;9346;52.006;4.720;2022-09-21T14:36:52;0.90;;;0.40;;
18435;SDS011;9346;52.006;4.720;2022-09-21T14:39:22;3.17;;;0.60;;
18435;SDS011;9346;52.006;4.720;2022-09-21T14:41:55;1.27;;;0.43;;
18435;SDS011;9346;52.006;4.720;2022-09-21T14:44:30;0.40;;;0.40;;
18435;SDS011;9346;52.006;4.720;2022-09-21T14:47:06;1.60;;;0.60;;
18435;SDS011;9346;52.006;4.720;2022-09-21T14:53:05;0.93;;;0.40;;
18435;SDS011;9346;52.006;4.720;2022-09-21T14:56:06;2.33;;;0.50;;
18435;SDS011;9346;52.006;4.720;2022-09-21T14:58:49;0.30;;;0.30;;
18435;SDS011;9346;52.006;4.720;2022-09-21T15:01:37;2.13;;;0.60;;
18435;SDS011;9346;52.006;4.720;2022-09-21T15:04:20;1.80;;;0.83;;
18435;SDS011;9346;52.006;4.720;2022-09-21T15:07:01;0.73;;;0.50;;
18435;SDS011;9346;52.006;4.720;2022-09-21T15:13:18;0.60;;;0.47;;
18435;SDS011;9346;52.006;4.720;2022-09-21T15:16:03;0.40;;;0.40;;
18435;SDS011;9346;52.006;4.720;2022-09-21T15:18:39;1.50;;;0.60;;
18435;SDS011;9346;52.006;4.720;2022-09-21T15:23:54;3.67;;;0.50;;
18435;SDS011;9346;52.006;4.720;2022-09-21T15:26:25;1.37;;;0.57;;
18435;SDS011;9346;52.006;4.720;2022-09-21T15:31:48;0.40;;;0.40;;
18435;SDS011;9346;52.006;4.720;2022-09-21T15:34:15;1.47;;;0.60;;
18435;SDS011;9346;52.006;4.720;2022-09-21T15:36:43;0.57;;;0.40;;
18435;SDS011;9346;52.006;4.720;2022-09-21T15:39:25;0.20;;;0.20;;
18435;SDS011;9346;52.006;4.720;2022-09-21T15:42:07;1.20;;;0.50;;
18435;SDS011;9346;52.006;4.720;2022-09-21T15:44:44;0.60;;;0.53;;
18435;SDS011;9346;52.006;4.720;2022-09-21T15:47:14;2.57;;;0.53;;
18435;SDS011;9346;52.006;4.720;2022-09-21T15:49:44;1.60;;;0.43;;
18435;SDS011;9346;52.006;4.720;2022-09-21T15:52:15;2.10;;;0.53;;
18435;SDS011;9346;52.006;4.720;2022-09-21T15:54:52;1.03;;;0.70;;
18435;SDS011;9346;52.006;4.720;2022-09-21T15:57:30;0.40;;;0.40;;
18435;SDS011;9346;52.006;4.720;2022-09-21T16:00:05;1.23;;;0.30;;
18435;SDS011;9346;52.006;4.720;2022-09-21T16:02:52;0.80;;;0.43;;
18435;SDS011;9346;52.006;4.720;2022-09-21T16:05:28;1.20;;;0.53;;
18435;SDS011;9346;52.006;4.720;2022-09-21T16:08:03;1.57;;;0.50;;
18435;SDS011;9346;52.006;4.720;2022-09-21T16:10:34;0.87;;;0.50;;
18435;SDS011;9346;52.006;4.720;2022-09-21T16:13:04;2.53;;;0.67;;
18435;SDS011;9346;52.006;4.720;2022-09-21T16:16:00;1.47;;;0.30;;
18435;SDS011;9346;52.006;4.720;2022-09-21T16:18:29;1.20;;;0.70;;
18435;SDS011;9346;52.006;4.720;2022-09-21T16:21:06;0.83;;;0.37;;
18435;SDS011;9346;52.006;4.720;2022-09-21T16:23:34;0.67;;;0.47;;
18435;SDS011;9346;52.006;4.720;2022-09-21T16:26:03;0.80;;;0.40;;
18435;SDS011;9346;52.006;4.720;2022-09-21T16:28:35;4.13;;;0.57;;
18435;SDS011;9346;52.006;4.720;2022-09-21T16:31:22;0.90;;;0.40;;
18435;SDS011;9346;52.006;4.720;2022-09-21T16:33:56;1.10;;;0.47;;
18435;SDS011;9346;52.006;4.720;2022-09-21T16:36:34;0.50;;;0.50;;
18435;SDS011;9346;52.006;4.720;2022-09-21T16:39:07;1.70;;;0.77;;
18435;SDS011;9346;52.006;4.720;2022-09-21T16:41:38;0.77;;;0.50;;
18435;SDS011;9346;52.006;4.720;2022-09-21T16:44:08;1.13;;;0.53;;
18435;SDS011;9346;52.006;4.720;2022-09-21T16:49:49;1.03;;;0.50;;
18435;SDS011;9346;52.006;4.720;2022-09-21T16:52:20;1.37;;;0.50;;
18435;SDS011;9346;52.006;4.720;2022-09-21T16:54:47;1.60;;;0.53;;
18435;SDS011;9346;52.006;4.720;2022-09-21T16:57:15;1.13;;;0.60;;
18435;SDS011;9346;52.006;4.720;2022-09-21T16:59:42;0.20;;;0.20;;
18435;SDS011;9346;52.006;4.720;2022-09-21T17:02:10;1.43;;;0.73;;
18435;SDS011;9346;52.006;4.720;2022-09-21T17:04:40;0.40;;;0.40;;
18435;SDS011;9346;52.006;4.720;2022-09-21T17:07:08;0.87;;;0.50;;
18435;SDS011;9346;52.006;4.720;2022-09-21T17:09:38;2.00;;;0.50;;
18435;SDS011;9346;52.006;4.720;2022-09-21T17:12:13;1.60;;;0.70;;
18435;SDS011;9346;52.006;4.720;2022-09-21T17:14:41;1.40;;;0.83;;